Time;durP1;ratioP1;P1;durP2;ratioP2;P2;SDS_P1;SDS_P2;PMS_P1;PMS_P2;Temp;Humidity;BMP_temperature;BMP_pressure;BME280_temperature;BME280_humidity;BME280_pressure;Samples;Min_cycle;Max_cycle;Signal;HPM_P1;HPM_P2
2023/03/02 00:02:16;;;;;;;25.73;23.03;;;3.90;98.90;;;;;;5114942;27;20490;-89
2023/03/02 00:04:53;;;;;;;26.60;23.67;;;3.90;99.00;;;;;;5097735;27;20398;-90
2023/03/02 00:07:30;;;;;;;27.80;23.90;;;4.00;99.10;;;;;;5096496;27;20398;-91
2023/03/02 00:09:57;;;;;;;27.27;24.38;;;3.90;99.10;;;;;;5097959;27;20468;-91
2023/03/02 00:12:23;;;;;;;28.67;25.67;;;3.90;99.10;;;;;;5095971;27;20402;-89
2023/03/02 00:14:49;;;;;;;27.95;24.95;;;3.90;99.00;;;;;;5097821;27;20395;-91
2023/03/02 00:17:14;;;;;;;30.35;26.92;;;4.00;99.00;;;;;;5096432;27;20447;-89
2023/03/02 00:19:40;;;;;;;33.13;27.93;;;4.00;98.90;;;;;;5113814;27;20937;-90
2023/03/02 00:22:06;;;;;;;34.80;29.85;;;3.90;98.80;;;;;;5114599;27;20402;-90
2023/03/02 00:24:32;;;;;;;33.07;28.90;;;3.90;98.80;;;;;;5095969;27;20894;-90
2023/03/02 00:26:57;;;;;;;33.45;29.85;;;3.90;98.80;;;;;;5097744;27;20429;-90
2023/03/02 00:29:23;;;;;;;36.90;31.70;;;3.90;98.90;;;;;;5112451;27;20490;-90
2023/03/02 00:31:49;;;;;;;35.90;31.50;;;3.90;98.90;;;;;;5097565;27;20730;-90
2023/03/02 00:34:15;;;;;;;33.63;29.97;;;3.90;98.90;;;;;;5112843;27;20436;-90
2023/03/02 00:36:41;;;;;;;32.45;28.23;;;3.90;99.00;;;;;;5096884;27;20398;-90
2023/03/02 00:39:07;;;;;;;32.80;29.25;;;3.90;98.90;;;;;;5096365;27;20430;-89
2023/03/02 00:41:32;;;;;;;35.20;31.33;;;3.90;98.90;;;;;;5096296;27;20398;-90
2023/03/02 00:43:58;;;;;;;37.27;31.57;;;4.00;98.80;;;;;;5097196;27;20391;-89
2023/03/02 00:46:24;;;;;;;35.33;31.35;;;4.00;98.80;;;;;;5112302;27;20402;-89
2023/03/02 00:48:51;;;;;;;37.63;32.65;;;4.00;99.20;;;;;;5095550;27;20399;-90
2023/03/02 00:51:17;;;;;;;39.22;34.30;;;4.00;98.80;;;;;;5094714;27;20395;-89
2023/03/02 00:53:43;;;;;;;38.03;33.93;;;4.00;98.80;;;;;;5096546;27;20904;-90
2023/03/02 00:56:09;;;;;;;35.63;30.90;;;4.00;98.70;;;;;;5094401;27;20410;-89
2023/03/02 00:58:36;;;;;;;34.42;30.63;;;4.00;98.70;;;;;;5096227;27;20448;-90
2023/03/02 01:01:08;;;;;;;34.65;30.85;;;4.00;98.80;;;;;;5096181;27;20451;-91
2023/03/02 01:03:35;;;;;;;36.20;32.22;;;4.00;98.80;;;;;;5095255;27;20444;-92
2023/03/02 01:06:00;;;;;;;35.85;32.03;;;3.90;98.80;;;;;;5096901;27;20735;-92
2023/03/02 01:08:26;;;;;;;40.13;35.37;;;3.90;98.80;;;;;;5094261;27;20402;-90
2023/03/02 01:10:52;;;;;;;42.37;37.73;;;3.90;98.90;;;;;;5096688;27;20470;-90
2023/03/02 01:13:18;;;;;;;45.10;40.15;;;3.90;99.00;;;;;;5094936;27;20792;-90
2023/03/02 01:15:44;;;;;;;42.28;37.78;;;3.90;98.90;;;;;;5096084;27;20395;-90
2023/03/02 01:18:10;;;;;;;28.40;25.30;;;3.90;98.90;;;;;;5095544;27;20429;-89
2023/03/02 01:20:36;;;;;;;30.23;27.00;;;3.90;98.80;;;;;;5094868;27;20426;-90
2023/03/02 01:23:01;;;;;;;27.27;24.50;;;3.80;98.80;;;;;;5113044;27;20477;-90
2023/03/02 01:25:27;;;;;;;28.73;25.63;;;3.80;98.90;;;;;;5094574;27;20489;-89
2023/03/02 01:27:53;;;;;;;24.85;22.17;;;3.70;99.00;;;;;;5096151;27;20395;-91
2023/03/02 01:30:19;;;;;;;23.05;20.02;;;3.70;99.00;;;;;;5094753;27;20406;-90
2023/03/02 01:32:44;;;;;;;21.02;18.92;;;3.60;99.00;;;;;;5096166;27;20897;-89
2023/03/02 01:35:10;;;;;;;19.83;17.73;;;3.70;99.10;;;;;;5094785;27;20402;-91
2023/03/02 01:37:36;;;;;;;19.43;17.37;;;3.60;99.10;;;;;;5095555;27;20398;-91
2023/03/02 01:40:05;;;;;;;20.17;16.50;;;3.60;99.10;;;;;;5095902;27;20514;-91
2023/03/02 01:42:49;;;;;;;18.05;16.05;;;3.70;99.10;;;;;;5094863;27;20761;-90
2023/03/02 01:45:50;;;;;;;17.67;15.70;;;3.60;99.10;;;;;;5096053;27;20406;-90
2023/03/02 01:48:20;;;;;;;15.48;13.75;;;3.60;99.10;;;;;;5094745;27;20403;-90
2023/03/02 01:50:46;;;;;;;15.50;13.80;;;3.60;99.20;;;;;;5094847;27;20489;-90
2023/03/02 01:53:14;;;;;;;16.63;14.85;;;3.50;99.30;;;;;;5095767;27;20839;-91
2023/03/02 01:55:43;;;;;;;16.52;14.45;;;3.50;99.30;;;;;;5094473;27;20998;-90
2023/03/02 01:58:10;;;;;;;18.23;14.57;;;3.50;99.40;;;;;;5095923;27;20394;-91
2023/03/02 02:00:38;;;;;;;18.40;15.73;;;3.50;99.60;;;;;;5093249;27;20472;-90
2023/03/02 02:03:30;;;;;;;22.90;18.10;;;3.40;99.70;;;;;;5096282;27;20806;-90
2023/03/02 02:06:11;;;;;;;25.23;19.77;;;3.40;99.70;;;;;;5107387;27;20772;-90
2023/03/02 02:08:37;;;;;;;27.13;19.08;;;3.30;99.90;;;;;;5093556;27;20871;-91
2023/03/02 02:11:04;;;;;;;23.30;18.88;;;3.30;99.90;;;;;;5095723;27;20906;-91
2023/03/02 02:13:30;;;;;;;31.15;21.67;;;3.40;99.90;;;;;;5110301;27;20407;-92
2023/03/02 02:15:56;;;;;;;33.65;22.75;;;3.50;99.90;;;;;;5095502;27;20757;-90
2023/03/02 02:18:22;;;;;;;29.97;21.00;;;3.30;99.90;;;;;;5093808;27;20395;-90
2023/03/02 02:20:49;;;;;;;27.42;19.98;;;3.30;99.90;;;;;;5094812;27;20493;-91
2023/03/02 02:23:46;;;;;;;27.83;21.58;;;3.30;99.90;;;;;;5094672;27;20435;-90
2023/03/02 02:26:21;;;;;;;26.23;20.87;;;3.30;99.90;;;;;;5108749;27;20407;-90
2023/03/02 02:28:56;;;;;;;21.02;18.35;;;3.30;99.90;;;;;;5112329;27;20403;-90
2023/03/02 02:31:51;;;;;;;23.13;18.90;;;3.30;99.90;;;;;;5094255;27;20758;-90
2023/03/02 02:34:34;;;;;;;20.95;18.13;;;3.20;99.90;;;;;;5094173;27;20804;-91
2023/03/02 02:37:24;;;;;;;20.33;17.83;;;3.20;99.90;;;;;;5095275;27;20477;-90
2023/03/02 02:39:51;;;;;;;20.30;17.08;;;3.20;99.90;;;;;;5093282;27;20510;-90
2023/03/02 02:42:23;;;;;;;21.55;18.42;;;3.20;99.90;;;;;;5094498;27;20434;-90
2023/03/02 02:44:57;;;;;;;19.38;17.27;;;3.20;99.90;;;;;;5111333;27;20395;-92
2023/03/02 02:47:23;;;;;;;22.95;18.75;;;3.20;99.90;;;;;;5093450;27;20453;-90
2023/03/02 02:49:52;;;;;;;22.63;18.55;;;3.20;99.90;;;;;;5094836;27;20399;-92
2023/03/02 02:52:21;;;;;;;25.38;20.40;;;3.10;99.90;;;;;;5093222;27;20452;-89
2023/03/02 02:54:50;;;;;;;24.88;21.08;;;3.10;99.90;;;;;;5094301;27;20916;-91
2023/03/02 02:57:17;;;;;;;25.83;21.23;;;3.10;99.90;;;;;;5093330;27;20394;-90
2023/03/02 02:59:49;;;;;;;29.92;22.73;;;3.10;99.90;;;;;;5094111;27;20450;-90
2023/03/02 03:02:21;;;;;;;29.73;23.15;;;3.10;99.90;;;;;;5094325;27;20415;-89
2023/03/02 03:04:47;;;;;;;29.30;23.25;;;3.10;99.90;;;;;;5093290;27;20403;-90
2023/03/02 03:07:21;;;;;;;35.33;26.00;;;3.10;99.90;;;;;;5094985;27;20451;-91
2023/03/02 03:10:09;;;;;;;36.38;25.33;;;3.00;99.90;;;;;;5092081;27;20854;-90
2023/03/02 03:12:37;;;;;;;31.73;23.38;;;3.00;99.90;;;;;;5093886;27;20445;-90
2023/03/02 03:15:04;;;;;;;29.52;23.83;;;3.00;99.90;;;;;;5093730;27;20868;-89
2023/03/02 03:17:29;;;;;;;30.30;23.37;;;3.00;99.90;;;;;;5093090;28;20441;-91
2023/03/02 03:20:04;;;;;;;26.97;22.20;;;2.90;99.90;;;;;;5094360;28;20454;-90
2023/03/02 03:22:32;;;;;;;29.73;22.70;;;3.00;99.90;;;;;;5092590;27;20399;-91
2023/03/02 03:24:58;;;;;;;25.77;21.83;;;3.00;99.90;;;;;;5094399;27;20474;-91
2023/03/02 03:27:23;;;;;;;31.30;24.23;;;3.00;99.90;;;;;;5109191;28;20970;-91
2023/03/02 03:29:49;;;;;;;38.58;26.17;;;3.00;99.90;;;;;;5094000;28;20485;-90
2023/03/02 03:32:15;;;;;;;32.08;24.85;;;3.00;99.90;;;;;;5093461;28;20402;-90
2023/03/02 03:34:41;;;;;;;41.83;27.98;;;3.00;99.90;;;;;;5093245;28;20399;-91
2023/03/02 03:37:10;;;;;;;35.38;26.45;;;3.00;99.90;;;;;;5093845;28;20838;-90
2023/03/02 03:39:36;;;;;;;34.47;25.80;;;3.00;99.90;;;;;;5109576;28;20426;-89
2023/03/02 03:42:02;;;;;;;40.35;28.13;;;2.90;99.90;;;;;;5093942;28;20417;-90
2023/03/02 03:44:28;;;;;;;36.42;27.15;;;2.90;99.90;;;;;;5109092;28;20395;-90
2023/03/02 03:46:54;;;;;;;34.73;26.97;;;2.90;99.90;;;;;;5094215;28;20408;-91
2023/03/02 03:49:20;;;;;;;34.17;26.50;;;2.90;99.90;;;;;;5092187;28;20769;-89
2023/03/02 03:51:46;;;;;;;33.47;25.90;;;2.90;99.90;;;;;;5093957;28;20418;-90
2023/03/02 03:54:12;;;;;;;34.53;27.73;;;3.00;99.90;;;;;;5093563;28;20399;-90
2023/03/02 03:56:42;;;;;;;40.95;27.42;;;2.90;99.90;;;;;;5092137;28;20506;-88
2023/03/02 03:59:11;;;;;;;40.72;28.92;;;3.10;99.90;;;;;;5093841;28;20426;-90
2023/03/02 04:01:57;;;;;;;47.47;30.70;;;2.90;99.90;;;;;;5092273;28;20399;-92
2023/03/02 04:04:27;;;;;;;40.30;28.65;;;3.00;99.90;;;;;;5094163;28;20419;-90
2023/03/02 04:06:54;;;;;;;88.83;31.10;;;2.90;99.90;;;;;;5092646;28;20430;-88
2023/03/02 04:09:20;;;;;;;45.85;29.88;;;2.90;99.90;;;;;;5092953;28;20886;-90
2023/03/02 04:11:48;;;;;;;40.07;29.03;;;2.80;99.90;;;;;;5093657;28;20399;-91
2023/03/02 04:14:14;;;;;;;51.72;30.15;;;2.80;99.90;;;;;;5092102;28;20405;-90
2023/03/02 04:16:41;;;;;;;80.65;31.20;;;2.80;99.90;;;;;;5110623;28;20852;-89
2023/03/02 04:19:09;;;;;;;47.27;30.90;;;2.70;99.90;;;;;;5091608;28;20431;-90
2023/03/02 04:21:48;;;;;;;56.50;30.37;;;2.90;99.90;;;;;;5093750;28;20407;-89
2023/03/02 04:24:15;;;;;;;55.60;32.30;;;2.70;99.90;;;;;;5096015;27;20546;-89
2023/03/02 04:26:41;;;;;;;56.03;31.88;;;2.70;99.90;;;;;;5096463;27;20413;-90
2023/03/02 04:29:09;;;;;;;64.35;34.22;;;2.70;99.90;;;;;;5097041;27;20491;-89
2023/03/02 04:31:34;;;;;;;60.20;34.40;;;2.70;99.90;;;;;;5095837;27;20500;-89
2023/03/02 04:34:04;;;;;;;57.35;33.40;;;2.60;99.90;;;;;;5097519;27;20510;-91
2023/03/02 04:36:30;;;;;;;47.60;32.37;;;2.60;99.90;;;;;;5095619;27;20401;-90
2023/03/02 04:38:56;;;;;;;56.17;33.90;;;2.80;99.90;;;;;;5097111;27;20498;-91
2023/03/02 04:41:22;;;;;;;73.85;34.55;;;2.60;99.90;;;;;;5112994;27;20441;-90
2023/03/02 04:43:48;;;;;;;57.72;33.70;;;2.70;99.90;;;;;;5096352;27;20508;-90
2023/03/02 04:46:18;;;;;;;54.10;33.47;;;2.70;99.90;;;;;;5096543;27;20399;-91
2023/03/02 04:48:43;;;;;;;104.30;35.83;;;2.70;99.90;;;;;;5095500;27;20406;-90
2023/03/02 04:51:35;;;;;;;56.47;34.03;;;2.70;99.90;;;;;;5096792;27;20413;-90
2023/03/02 04:54:06;;;;;;;67.25;34.95;;;2.70;99.90;;;;;;5090532;27;20406;-92
2023/03/02 04:56:32;;;;;;;50.67;33.65;;;2.80;99.90;;;;;;5113780;27;20394;-89
2023/03/02 04:58:58;;;;;;;57.08;34.70;;;2.60;99.90;;;;;;5095992;27;20419;-89
2023/03/02 05:01:25;;;;;;;77.50;37.30;;;2.70;99.90;;;;;;5112734;27;20441;-90
2023/03/02 05:03:51;;;;;;;84.25;40.88;;;2.70;99.90;;;;;;5096844;27;20417;-90
2023/03/02 05:06:17;;;;;;;78.45;43.28;;;2.70;99.90;;;;;;5095245;27;20874;-89
2023/03/02 05:08:43;;;;;;;99.30;42.67;;;2.70;99.90;;;;;;5096728;27;20403;-90
2023/03/02 05:11:20;;;;;;;83.25;40.42;;;2.70;99.90;;;;;;5094958;27;20436;-90
2023/03/02 05:13:47;;;;;;;74.10;42.13;;;2.70;99.90;;;;;;5113340;27;20473;-89
2023/03/02 05:16:13;;;;;;;90.05;43.53;;;2.60;99.90;;;;;;5094864;27;20391;-89
2023/03/02 05:18:38;;;;;;;124.82;46.55;;;2.70;99.90;;;;;;5095607;27;20424;-90
2023/03/02 05:21:05;;;;;;;126.20;46.17;;;2.60;99.90;;;;;;5096561;27;20913;-91
2023/03/02 05:23:30;;;;;;;92.50;46.30;;;2.60;99.90;;;;;;5094685;27;20409;-88
2023/03/02 05:25:56;;;;;;;103.18;49.33;;;2.60;99.90;;;;;;5096614;27;20399;-90
2023/03/02 05:28:24;;;;;;;113.68;51.15;;;2.60;99.90;;;;;;5094537;27;20410;-89
2023/03/02 05:30:51;;;;;;;150.30;54.42;;;2.60;99.90;;;;;;5096576;27;20422;-90
2023/03/02 05:33:17;;;;;;;169.35;56.70;;;2.60;99.90;;;;;;5094600;27;21088;-89
2023/03/02 05:35:43;;;;;;;104.90;51.75;;;2.80;99.90;;;;;;5094436;27;20425;-91
2023/03/02 05:38:10;;;;;;;124.25;53.35;;;2.60;99.90;;;;;;5095621;27;20382;-91
2023/03/02 05:40:36;;;;;;;138.85;51.67;;;2.60;99.90;;;;;;5095132;27;20486;-90
2023/03/02 05:43:02;;;;;;;126.05;51.67;;;2.60;99.90;;;;;;5096119;27;20440;-89
2023/03/02 05:45:31;;;;;;;146.55;54.40;;;2.60;99.90;;;;;;5111138;27;20765;-90
2023/03/02 05:47:57;;;;;;;142.73;53.88;;;2.50;99.90;;;;;;5112713;27;20430;-91
2023/03/02 05:50:23;;;;;;;136.13;54.13;;;2.50;99.90;;;;;;5091991;27;20965;-90
2023/03/02 05:52:49;;;;;;;142.57;56.00;;;2.50;99.90;;;;;;5094951;27;20437;-89
2023/03/02 05:55:16;;;;;;;153.05;55.95;;;2.50;99.90;;;;;;5094302;27;20410;-90
2023/03/02 05:57:42;;;;;;;190.65;58.03;;;2.60;99.90;;;;;;5093636;27;20451;-89
2023/03/02 06:00:10;;;;;;;198.70;59.58;;;2.50;99.90;;;;;;5094002;27;20433;-90
2023/03/02 06:02:39;;;;;;;151.27;56.37;;;2.50;99.90;;;;;;5092590;27;20428;-88
2023/03/02 06:05:07;;;;;;;168.10;59.00;;;2.50;99.90;;;;;;5100034;27;20399;-90
2023/03/02 06:07:32;;;;;;;166.43;58.13;;;2.50;99.90;;;;;;5100530;27;20425;-89
2023/03/02 06:09:58;;;;;;;134.25;57.25;;;2.40;99.90;;;;;;5103800;27;20403;-88
2023/03/02 06:12:24;;;;;;;123.35;52.75;;;2.50;99.90;;;;;;5092841;27;20395;-89
2023/03/02 06:14:49;;;;;;;139.45;51.22;;;2.60;99.90;;;;;;5094449;27;20463;-89
2023/03/02 06:17:15;;;;;;;116.93;51.73;;;2.60;99.90;;;;;;5094904;27;20519;-89
2023/03/02 06:19:41;;;;;;;135.13;51.03;;;2.60;99.90;;;;;;5093133;27;20517;-89
2023/03/02 06:22:06;;;;;;;116.80;46.57;;;2.60;99.90;;;;;;5095037;27;20411;-89
2023/03/02 06:24:32;;;;;;;134.15;49.00;;;2.70;99.90;;;;;;5110051;27;20410;-90
2023/03/02 06:26:58;;;;;;;127.05;49.50;;;2.60;99.90;;;;;;5094620;27;20395;-89
2023/03/02 06:29:24;;;;;;;146.80;51.13;;;2.60;99.90;;;;;;5110234;27;20504;-88
2023/03/02 06:31:49;;;;;;;112.35;50.30;;;2.60;99.90;;;;;;5111253;27;20398;-89
2023/03/02 06:34:15;;;;;;;124.23;51.10;;;2.60;99.90;;;;;;5093615;27;20403;-88
2023/03/02 06:36:41;;;;;;;116.80;50.50;;;2.50;99.90;;;;;;5093732;27;20403;-88
2023/03/02 06:39:14;;;;;;;105.77;49.63;;;2.70;99.90;;;;;;5093837;27;20431;-90
2023/03/02 06:41:44;;;;;;;123.03;49.70;;;2.60;99.90;;;;;;5109721;27;20442;-87
2023/03/02 06:44:11;;;;;;;139.85;51.35;;;2.60;99.90;;;;;;5094358;27;20409;-89
2023/03/02 06:46:38;;;;;;;141.10;50.95;;;2.80;99.90;;;;;;5092139;27;20489;-89
2023/03/02 06:49:04;;;;;;;155.98;53.20;;;2.70;99.90;;;;;;5094352;27;20402;-89
2023/03/02 06:51:30;;;;;;;134.50;50.95;;;2.60;99.90;;;;;;5093008;27;20414;-89
2023/03/02 06:53:56;;;;;;;128.85;51.97;;;2.60;99.90;;;;;;5093731;27;20395;-88
2023/03/02 06:56:22;;;;;;;122.97;50.78;;;2.60;99.90;;;;;;5093911;27;20429;-90
2023/03/02 06:58:48;;;;;;;150.57;53.67;;;2.60;99.90;;;;;;5109612;27;20973;-90
2023/03/02 07:01:14;;;;;;;104.13;48.70;;;2.70;99.90;;;;;;5094392;27;20489;-88
2023/03/02 07:03:39;;;;;;;117.53;50.37;;;2.60;99.90;;;;;;5109351;27;20395;-90
2023/03/02 07:06:05;;;;;;;123.63;49.67;;;2.70;99.90;;;;;;5094328;27;20410;-90
2023/03/02 07:08:31;;;;;;;144.37;51.10;;;3.00;99.90;;;;;;5092960;27;20387;-88
2023/03/02 07:10:57;;;;;;;127.13;51.13;;;2.70;99.90;;;;;;5093633;27;20478;-90
2023/03/02 07:13:23;;;;;;;147.20;54.10;;;2.70;99.90;;;;;;5110168;27;20403;-88
2023/03/02 07:15:48;;;;;;;199.80;53.63;;;3.00;99.90;;;;;;5092535;27;20403;-89
2023/03/02 07:18:14;;;;;;;127.15;49.00;;;2.80;99.90;;;;;;5093726;28;20497;-89
2023/03/02 07:20:40;;;;;;;139.93;48.17;;;2.80;99.90;;;;;;5091695;28;20423;-90
2023/03/02 07:23:06;;;;;;;208.80;54.05;;;2.90;99.90;;;;;;5093867;28;20407;-88
2023/03/02 07:25:31;;;;;;;178.93;52.22;;;2.50;99.90;;;;;;5091915;28;20485;-89
2023/03/02 07:27:57;;;;;;;104.93;48.67;;;2.80;99.90;;;;;;5093723;27;20391;-89
2023/03/02 07:30:23;;;;;;;121.00;49.97;;;2.80;99.90;;;;;;5092973;28;20395;-89
2023/03/02 07:32:50;;;;;;;182.25;53.13;;;2.90;99.90;;;;;;5093078;28;20432;-88
2023/03/02 07:35:16;;;;;;;214.10;53.17;;;2.90;99.90;;;;;;5093243;28;20398;-88
2023/03/02 07:37:42;;;;;;;142.13;50.37;;;2.90;99.90;;;;;;5091867;28;20460;-91
2023/03/02 07:40:10;;;;;;;176.80;52.90;;;2.90;99.90;;;;;;5093349;28;21262;-89
2023/03/02 07:42:37;;;;;;;222.57;51.85;;;2.90;99.90;;;;;;5091029;28;20391;-89
2023/03/02 07:45:04;;;;;;;121.28;49.25;;;2.90;99.90;;;;;;5093039;28;20395;-90
2023/03/02 07:47:30;;;;;;;138.93;50.38;;;3.00;99.90;;;;;;5091415;28;20778;-89
2023/03/02 07:49:56;;;;;;;117.03;49.75;;;3.00;99.90;;;;;;5110121;28;20411;-89
2023/03/02 07:52:21;;;;;;;131.43;51.53;;;3.10;99.90;;;;;;5109799;28;20422;-89
2023/03/02 07:54:47;;;;;;;206.00;55.67;;;3.00;99.90;;;;;;5108778;28;20477;-90
2023/03/02 07:57:15;;;;;;;116.25;51.35;;;3.10;99.90;;;;;;5094012;27;20399;-90
2023/03/02 07:59:42;;;;;;;171.05;52.80;;;3.10;99.90;;;;;;5112635;27;20418;-87
2023/03/02 08:02:15;;;;;;;228.88;55.17;;;3.30;99.90;;;;;;5114493;27;20505;-89
2023/03/02 08:04:40;;;;;;;146.73;49.75;;;3.20;99.90;;;;;;5095811;27;20403;-89
2023/03/02 08:07:06;;;;;;;243.48;52.53;;;3.30;99.90;;;;;;5101577;27;20402;-90
2023/03/02 08:09:32;;;;;;;180.20;53.17;;;3.20;99.90;;;;;;5115047;27;20403;-89
2023/03/02 08:11:58;;;;;;;126.38;49.45;;;3.20;99.90;;;;;;5116506;27;20441;-90
2023/03/02 08:14:23;;;;;;;115.43;48.00;;;3.20;99.90;;;;;;5117098;27;20925;-91
2023/03/02 08:16:51;;;;;;;130.67;47.80;;;3.40;99.90;;;;;;5116564;27;20480;-90
2023/03/02 08:19:18;;;;;;;144.18;50.47;;;3.30;99.90;;;;;;5135041;27;20857;-90
2023/03/02 08:21:43;;;;;;;108.00;49.88;;;3.40;99.90;;;;;;5115539;27;20392;-90
2023/03/02 08:24:10;;;;;;;122.50;51.00;;;3.40;99.90;;;;;;5117833;27;20952;-91
2023/03/02 08:26:36;;;;;;;101.45;51.13;;;3.50;99.90;;;;;;5133890;27;20396;-90
2023/03/02 08:29:02;;;;;;;115.47;51.33;;;3.50;99.90;;;;;;5116675;27;20546;-90
2023/03/02 08:31:27;;;;;;;97.53;49.38;;;3.60;99.90;;;;;;5134342;27;20409;-90
2023/03/02 08:33:53;;;;;;;96.80;50.83;;;3.60;99.90;;;;;;5116270;27;20401;-90
2023/03/02 08:36:19;;;;;;;102.63;48.08;;;3.60;99.90;;;;;;5134058;27;20429;-91
2023/03/02 08:38:47;;;;;;;101.93;48.27;;;3.70;99.90;;;;;;5115854;27;20754;-90
2023/03/02 08:41:15;;;;;;;163.27;51.30;;;3.80;99.90;;;;;;5117461;27;20436;-90
2023/03/02 08:43:41;;;;;;;163.57;49.83;;;3.80;99.90;;;;;;5132365;27;20397;-88
2023/03/02 08:46:07;;;;;;;98.77;47.90;;;3.80;99.90;;;;;;5116885;27;20748;-90
2023/03/02 08:48:33;;;;;;;104.57;48.27;;;3.90;99.90;;;;;;5117464;27;20454;-90
2023/03/02 08:51:04;;;;;;;95.37;47.83;;;3.80;99.90;;;;;;5115369;27;20440;-90
2023/03/02 08:53:34;;;;;;;96.17;47.50;;;4.20;99.90;;;;;;5110814;27;20393;-91
2023/03/02 08:55:59;;;;;;;93.67;47.37;;;3.90;99.90;;;;;;5115110;27;20401;-90
2023/03/02 08:58:25;;;;;;;88.50;47.33;;;3.80;99.90;;;;;;5133587;27;20404;-89
2023/03/02 09:00:51;;;;;;;80.03;44.30;;;3.80;99.90;;;;;;5114996;27;20518;-91
2023/03/02 09:03:16;;;;;;;73.07;40.97;;;4.00;99.90;;;;;;5116905;27;20401;-90
2023/03/02 09:05:45;;;;;;;83.00;41.80;;;4.20;99.90;;;;;;5115969;27;20441;-89
2023/03/02 09:08:11;;;;;;;85.00;43.53;;;4.30;99.90;;;;;;5131874;27;20409;-90
2023/03/02 09:10:37;;;;;;;84.00;41.60;;;4.40;99.90;;;;;;5098184;27;20757;-89
2023/03/02 09:13:03;;;;;;;77.85;41.60;;;4.60;99.90;;;;;;5111602;27;20408;-89
2023/03/02 09:15:29;;;;;;;72.00;38.13;;;4.60;99.70;;;;;;5107996;27;20418;-90
2023/03/02 09:17:56;;;;;;;77.28;35.85;;;4.60;99.40;;;;;;5103593;27;20399;-90
2023/03/02 09:20:22;;;;;;;53.13;33.78;;;4.60;99.00;;;;;;5109909;27;20435;-90
2023/03/02 09:22:49;;;;;;;56.47;33.10;;;4.60;99.00;;;;;;5095837;27;20390;-89
2023/03/02 09:25:17;;;;;;;65.43;31.70;;;4.70;99.00;;;;;;5113167;27;20441;-91
2023/03/02 09:27:43;;;;;;;52.75;31.10;;;4.80;98.50;;;;;;5104051;27;20401;-89
2023/03/02 09:30:10;;;;;;;53.58;31.83;;;4.80;98.20;;;;;;5102679;27;21121;-90
2023/03/02 09:32:35;;;;;;;45.27;29.40;;;5.00;98.30;;;;;;5111254;27;20405;-89
2023/03/02 09:35:01;;;;;;;40.00;27.37;;;5.00;98.10;;;;;;5095825;27;21007;-89
2023/03/02 09:37:27;;;;;;;39.05;26.40;;;5.00;97.30;;;;;;5095058;27;20445;-91
2023/03/02 09:39:53;;;;;;;35.83;24.83;;;5.00;97.00;;;;;;5117111;27;20425;-90
2023/03/02 09:42:45;;;;;;;35.30;24.67;;;5.10;97.20;;;;;;5107849;27;20401;-90
2023/03/02 09:45:32;;;;;;;32.28;23.35;;;5.20;97.30;;;;;;5090896;27;20796;-91
2023/03/02 09:48:04;;;;;;;30.43;22.73;;;5.30;96.90;;;;;;5103319;27;20461;-90
2023/03/02 09:50:45;;;;;;;33.30;24.58;;;5.60;96.90;;;;;;5098963;27;20438;-90
2023/03/02 09:53:14;;;;;;;29.10;22.60;;;5.80;96.70;;;;;;5094319;27;20406;-90
2023/03/02 09:55:39;;;;;;;30.02;22.45;;;6.10;95.80;;;;;;5094443;27;20450;-90
2023/03/02 09:58:14;;;;;;;28.25;22.05;;;6.40;95.80;;;;;;5097766;27;20428;-90
2023/03/02 10:00:42;;;;;;;25.55;20.17;;;6.70;95.10;;;;;;5122773;27;20433;-91
2023/03/02 10:03:24;;;;;;;23.00;18.25;;;7.40;94.60;;;;;;5124810;27;20395;-90
2023/03/02 10:05:55;;;;;;;24.63;19.25;;;7.20;92.20;;;;;;5110021;27;20407;-89
2023/03/02 10:08:27;;;;;;;26.08;20.80;;;7.20;92.50;;;;;;5111991;27;20413;-91
2023/03/02 10:11:07;;;;;;;27.80;21.08;;;7.20;93.10;;;;;;5111559;27;20415;-89
2023/03/02 10:13:45;;;;;;;27.97;21.53;;;7.30;93.00;;;;;;5093840;27;20425;-90
2023/03/02 10:16:23;;;;;;;29.10;21.50;;;7.30;92.40;;;;;;5111113;27;20485;-89
2023/03/02 10:19:12;;;;;;;28.63;21.17;;;7.30;92.20;;;;;;5093409;27;20497;-90
2023/03/02 10:21:47;;;;;;;30.13;22.20;;;7.60;92.20;;;;;;5098069;27;20391;-90
2023/03/02 10:24:32;;;;;;;32.03;22.75;;;7.40;92.00;;;;;;5094585;27;20395;-91
2023/03/02 10:27:08;;;;;;;32.40;22.20;;;7.40;91.80;;;;;;5093738;27;20403;-90
2023/03/02 10:29:59;;;;;;;31.48;21.58;;;7.10;91.80;;;;;;5094982;27;20406;-90
2023/03/02 10:32:37;;;;;;;28.05;20.38;;;6.80;92.10;;;;;;5114519;27;20489;-90
2023/03/02 10:35:25;;;;;;;28.55;20.85;;;6.80;92.90;;;;;;5120223;27;20410;-89
2023/03/02 10:38:01;;;;;;;29.13;20.65;;;7.10;93.80;;;;;;5107666;27;20916;-91
2023/03/02 10:40:39;;;;;;;27.50;20.60;;;7.60;93.10;;;;;;5093284;27;20426;-90
2023/03/02 10:43:10;;;;;;;27.42;20.27;;;8.30;92.70;;;;;;5093676;27;20406;-91
2023/03/02 10:45:35;;;;;;;25.65;19.48;;;8.90;91.40;;;;;;5094355;27;20430;-91
2023/03/02 10:48:05;;;;;;;21.73;17.38;;;9.40;88.00;;;;;;5096343;27;20438;-91
2023/03/02 10:50:32;;;;;;;20.52;17.73;;;9.90;84.00;;;;;;5095710;27;20409;-91
2023/03/02 10:52:58;;;;;;;21.70;17.97;;;10.30;84.70;;;;;;5101333;27;20906;-91
2023/03/02 10:55:24;;;;;;;21.23;18.05;;;10.70;81.10;;;;;;5120150;27;20893;-91
2023/03/02 10:58:05;;;;;;;21.95;17.95;;;10.60;78.80;;;;;;5092832;27;20916;-90
2023/03/02 11:00:33;;;;;;;23.23;19.02;;;10.40;76.60;;;;;;5094297;27;20422;-91
2023/03/02 11:03:20;;;;;;;24.50;19.33;;;10.10;79.00;;;;;;5118627;27;20480;-90
2023/03/02 11:05:46;;;;;;;22.35;18.27;;;9.80;80.20;;;;;;5098765;27;20418;-92
2023/03/02 11:08:18;;;;;;;21.65;17.55;;;9.80;83.40;;;;;;5094015;27;20417;-90
2023/03/02 11:10:53;;;;;;;17.08;14.40;;;9.90;82.60;;;;;;5111063;27;20407;-90
2023/03/02 11:13:32;;;;;;;17.58;15.25;;;10.10;80.30;;;;;;5099622;28;20402;-90
2023/03/02 11:16:01;;;;;;;19.02;15.82;;;10.50;80.70;;;;;;5108251;27;20405;-91
2023/03/02 11:18:39;;;;;;;19.67;16.65;;;11.10;78.90;;;;;;5093340;27;20489;-91
2023/03/02 11:21:20;;;;;;;17.30;14.80;;;11.60;75.40;;;;;;5098527;27;20942;-92
2023/03/02 11:24:08;;;;;;;18.73;16.70;;;11.80;75.70;;;;;;5107077;27;20937;-92
2023/03/02 11:26:58;;;;;;;17.60;15.57;;;12.30;71.90;;;;;;5110546;28;20435;-92
2023/03/02 11:29:54;;;;;;;19.40;16.75;;;12.60;70.50;;;;;;5094128;28;20403;-91
2023/03/02 11:32:39;;;;;;;19.05;16.48;;;12.70;70.00;;;;;;5109091;28;20553;-91
2023/03/02 11:35:16;;;;;;;18.70;16.70;;;13.10;68.30;;;;;;5109760;28;20410;-91
2023/03/02 11:37:56;;;;;;;19.30;16.53;;;13.50;70.10;;;;;;5127514;28;20821;-89
2023/03/02 11:40:35;;;;;;;19.70;17.60;;;13.70;64.00;;;;;;5108413;28;20506;-90
2023/03/02 11:43:04;;;;;;;21.38;18.42;;;14.00;63.90;;;;;;5109905;28;20407;-89
2023/03/02 11:45:35;;;;;;;21.45;18.20;;;14.00;64.70;;;;;;5091084;28;20431;-89
2023/03/02 11:48:03;;;;;;;21.27;18.43;;;14.20;62.60;;;;;;5109913;28;20758;-89
2023/03/02 11:50:36;;;;;;;21.65;18.95;;;14.30;62.50;;;;;;5109583;28;20409;-87
2023/03/02 11:53:05;;;;;;;23.35;20.42;;;14.50;63.00;;;;;;5091102;28;20379;-89
2023/03/02 11:55:41;;;;;;;24.83;21.33;;;14.80;61.60;;;;;;5093001;28;20398;-90
2023/03/02 11:58:12;;;;;;;27.45;23.75;;;15.20;62.20;;;;;;5108794;28;20402;-90
2023/03/02 12:00:41;;;;;;;26.20;23.17;;;15.60;58.60;;;;;;5092100;28;20496;-90
2023/03/02 12:03:13;;;;;;;26.17;22.93;;;15.50;57.40;;;;;;5109164;28;20944;-91
2023/03/02 12:05:39;;;;;;;21.70;19.38;;;15.40;58.30;;;;;;5110578;27;20451;-91
2023/03/02 12:08:14;;;;;;;21.48;19.20;;;15.70;56.30;;;;;;5102700;27;20439;-89
2023/03/02 12:10:44;;;;;;;25.38;22.67;;;15.10;57.50;;;;;;5107106;27;20408;-91
2023/03/02 12:13:17;;;;;;;21.95;19.27;;;15.00;58.70;;;;;;5130581;27;20400;-90
2023/03/02 12:15:45;;;;;;;22.30;19.90;;;15.00;59.40;;;;;;5111715;27;20408;-90
2023/03/02 12:18:43;;;;;;;19.77;17.67;;;15.10;58.80;;;;;;5113459;27;20501;-93
2023/03/02 12:21:13;;;;;;;18.58;16.58;;;15.20;58.90;;;;;;5125102;27;20397;-91
2023/03/02 12:23:41;;;;;;;17.55;15.73;;;14.70;56.60;;;;;;5112381;27;20756;-92
2023/03/02 12:26:18;;;;;;;16.30;14.60;;;14.20;59.40;;;;;;5114245;27;20756;-92
2023/03/02 12:28:57;;;;;;;16.45;14.75;;;14.40;61.70;;;;;;5113102;27;20872;-91
2023/03/02 12:31:23;;;;;;;16.30;14.60;;;14.80;60.00;;;;;;5112859;27;20403;-92
2023/03/02 12:33:51;;;;;;;15.90;14.23;;;15.30;58.30;;;;;;5113949;27;20545;-90
2023/03/02 12:36:30;;;;;;;14.70;13.20;;;15.50;56.10;;;;;;5129357;27;20401;-94
2023/03/02 12:39:22;;;;;;;14.13;12.73;;;15.60;57.20;;;;;;5114278;27;20398;-92
2023/03/02 12:42:22;;;;;;;13.13;11.73;;;16.10;54.90;;;;;;5112746;27;20401;-92
2023/03/02 12:45:03;;;;;;;13.98;12.57;;;16.70;52.80;;;;;;5112925;27;20484;-92
2023/03/02 12:47:30;;;;;;;12.77;11.48;;;16.90;53.50;;;;;;5117919;27;20413;-91